createdAt,value
2023-02-04T00:01:37.412Z,9.44
2023-02-04T00:04:05.567Z,9.43
2023-02-04T00:06:33.358Z,9.44
2023-02-04T00:09:01.148Z,9.44
2023-02-04T00:11:30.254Z,9.44
2023-02-04T00:13:58.001Z,9.44
2023-02-04T00:16:25.811Z,9.42
2023-02-04T00:18:53.679Z,9.42
2023-02-04T00:21:21.451Z,9.39
2023-02-04T00:23:51.134Z,9.40
2023-02-04T00:26:18.911Z,9.39
2023-02-04T00:28:47.979Z,9.38
2023-02-04T00:31:15.799Z,9.37
2023-02-04T00:33:43.940Z,9.38
2023-02-04T00:36:11.682Z,9.36
2023-02-04T00:38:39.414Z,9.35
2023-02-04T00:41:07.630Z,9.33
2023-02-04T00:43:35.355Z,9.34
2023-02-04T00:46:04.519Z,9.31
2023-02-04T00:48:32.298Z,9.32
2023-02-04T00:50:59.984Z,9.30
2023-02-04T00:53:27.695Z,9.30
2023-02-04T00:55:55.460Z,9.27
2023-02-04T00:58:23.240Z,9.28
2023-02-04T01:00:51.021Z,9.28
2023-02-04T01:03:20.349Z,9.27
2023-02-04T01:05:48.070Z,9.26
2023-02-04T01:08:15.858Z,9.27
2023-02-04T01:10:43.589Z,9.27
2023-02-04T01:13:11.634Z,9.26
2023-02-04T01:15:39.372Z,9.27
2023-02-04T01:18:07.115Z,9.27
2023-02-04T01:20:36.204Z,9.27
2023-02-04T01:23:03.943Z,9.27
2023-02-04T01:25:31.661Z,9.26
2023-02-04T01:27:59.462Z,9.27
2023-02-04T01:30:27.375Z,9.27
2023-02-04T01:32:55.096Z,9.26
2023-02-04T01:35:22.966Z,9.27
2023-02-04T01:37:52.057Z,9.28
2023-02-04T01:40:20.327Z,9.27
2023-02-04T01:42:48.313Z,9.29
2023-02-04T01:45:16.086Z,9.28
2023-02-04T01:47:45.189Z,9.28
2023-02-04T01:50:15.709Z,9.26
2023-02-04T01:52:45.388Z,9.27
2023-02-04T01:55:18.109Z,9.26
2023-02-04T01:57:46.206Z,9.25
2023-02-04T02:00:17.843Z,9.24
2023-02-04T02:02:48.140Z,9.22
2023-02-04T02:05:19.041Z,9.23
2023-02-04T02:07:46.889Z,9.23
2023-02-04T02:10:17.071Z,9.24
2023-02-04T02:12:45.356Z,9.21
2023-02-04T02:15:14.578Z,9.21
2023-02-04T02:17:42.821Z,9.21
2023-02-04T02:20:13.100Z,9.21
2023-02-04T02:22:45.641Z,9.18
2023-02-04T02:25:16.187Z,9.18
2023-02-04T02:27:44.649Z,9.17
2023-02-04T02:30:16.691Z,9.14
2023-02-04T02:32:45.617Z,9.14
2023-02-04T02:35:13.526Z,9.13
2023-02-04T02:37:41.327Z,9.10
2023-02-04T02:40:10.502Z,9.04
2023-02-04T02:42:39.876Z,9.11
2023-02-04T02:45:18.270Z,9.10
2023-02-04T02:47:46.106Z,9.10
2023-02-04T02:50:17.900Z,9.10
2023-02-04T02:52:45.787Z,9.09
2023-02-04T02:55:17.220Z,9.07
2023-02-04T02:57:48.315Z,9.08
2023-02-04T03:00:18.667Z,9.05
2023-02-04T03:02:50.814Z,9.07
2023-02-04T03:05:18.609Z,9.07
2023-02-04T03:07:46.407Z,9.05
2023-02-04T03:10:14.222Z,9.03
2023-02-04T03:12:42.012Z,9.04
2023-02-04T03:15:11.660Z,9.03
2023-02-04T03:17:39.490Z,9.03
2023-02-04T03:20:08.385Z,9.02
2023-02-04T03:22:36.453Z,9.01
2023-02-04T03:25:04.520Z,9.01
2023-02-04T03:27:32.492Z,8.99
2023-02-04T03:30:00.259Z,8.99
2023-02-04T03:32:29.334Z,8.98
2023-02-04T03:34:57.049Z,8.99
2023-02-04T03:37:24.764Z,8.99
2023-02-04T03:39:52.542Z,8.98
2023-02-04T03:42:20.291Z,8.97
2023-02-04T03:44:48.017Z,8.97
2023-02-04T03:47:15.809Z,8.97
2023-02-04T03:49:44.905Z,8.96
2023-02-04T03:52:12.668Z,8.96
2023-02-04T03:54:40.397Z,8.93
2023-02-04T03:57:08.109Z,8.94
2023-02-04T03:59:35.860Z,8.93
2023-02-04T04:02:03.632Z,8.92
2023-02-04T04:04:31.446Z,8.91
2023-02-04T04:07:00.585Z,8.81
2023-02-04T04:09:28.494Z,8.88
2023-02-04T04:11:56.482Z,8.89
2023-02-04T04:14:24.215Z,8.89
2023-02-04T04:16:51.982Z,8.88
2023-02-04T04:19:19.758Z,8.87
2023-02-04T04:21:47.538Z,8.84
2023-02-04T04:24:16.630Z,8.84
2023-02-04T04:26:44.370Z,8.82
2023-02-04T04:29:12.156Z,8.80
2023-02-04T04:31:39.976Z,8.79
2023-02-04T04:34:07.799Z,8.78
2023-02-04T04:36:35.544Z,8.77
2023-02-04T04:39:03.268Z,8.77
2023-02-04T04:41:32.327Z,8.76
2023-02-04T04:44:00.029Z,8.67
2023-02-04T04:46:27.790Z,8.75
2023-02-04T04:48:55.566Z,8.76
2023-02-04T04:51:23.362Z,8.73
2023-02-04T04:53:51.145Z,8.73
2023-02-04T04:56:19.201Z,8.72
2023-02-04T04:58:48.341Z,8.72
2023-02-04T05:01:16.146Z,8.70
2023-02-04T05:03:43.928Z,8.68
2023-02-04T05:06:13.067Z,8.68
2023-02-04T05:08:40.831Z,8.68
2023-02-04T05:11:08.605Z,8.67
2023-02-04T05:13:36.332Z,8.67
2023-02-04T05:16:05.995Z,8.67
2023-02-04T05:18:33.754Z,8.66
2023-02-04T05:21:01.768Z,8.65
2023-02-04T05:23:29.468Z,8.65
2023-02-04T05:25:57.458Z,8.64
2023-02-04T05:28:25.207Z,8.64
2023-02-04T05:30:52.943Z,8.62
2023-02-04T05:33:22.040Z,8.61
2023-02-04T05:35:50.036Z,8.62
2023-02-04T05:38:17.788Z,8.62
2023-02-04T05:40:45.537Z,8.62
2023-02-04T05:43:13.257Z,8.63
2023-02-04T05:45:41.010Z,8.63
2023-02-04T05:48:08.778Z,8.64
2023-02-04T05:50:37.937Z,8.64
2023-02-04T05:53:05.712Z,8.63
2023-02-04T05:55:33.463Z,8.64
2023-02-04T05:58:01.263Z,8.64
2023-02-04T06:00:29.062Z,8.64
2023-02-04T06:02:56.899Z,8.63
2023-02-04T06:05:24.657Z,8.63
2023-02-04T06:07:53.825Z,8.62
2023-02-04T06:10:22.081Z,8.64
2023-02-04T06:12:50.092Z,8.62
2023-02-04T06:15:18.114Z,8.63
2023-02-04T06:17:45.798Z,8.63
2023-02-04T06:20:15.864Z,8.61
2023-02-04T06:22:43.588Z,8.60
2023-02-04T06:25:12.687Z,8.60
2023-02-04T06:27:40.467Z,8.58
2023-02-04T06:30:09.389Z,8.57
2023-02-04T06:32:37.256Z,8.57
2023-02-04T06:35:05.286Z,8.58
2023-02-04T06:37:33.043Z,8.56
2023-02-04T06:40:00.853Z,8.55
2023-02-04T06:42:29.895Z,8.56
2023-02-04T06:44:57.678Z,8.55
2023-02-04T06:47:25.409Z,8.54
2023-02-04T06:49:53.155Z,8.54
2023-02-04T06:52:20.892Z,8.54
2023-02-04T06:54:48.688Z,8.55
2023-02-04T06:57:16.399Z,8.55
2023-02-04T06:59:47.034Z,8.41
2023-02-04T07:02:15.516Z,8.40
2023-02-04T07:04:43.807Z,8.42
2023-02-04T07:07:11.614Z,8.42
2023-02-04T07:09:40.618Z,8.44
2023-02-04T07:12:08.699Z,8.45
2023-02-04T07:14:36.487Z,8.46
2023-02-04T07:17:05.638Z,8.46
2023-02-04T07:19:33.824Z,8.47
2023-02-04T07:22:01.596Z,8.47
2023-02-04T07:24:29.351Z,8.48
2023-02-04T07:26:57.106Z,8.48
2023-02-04T07:29:26.046Z,8.49
2023-02-04T07:31:54.120Z,8.48
2023-02-04T07:34:23.393Z,8.49
2023-02-04T07:36:51.499Z,8.48
2023-02-04T07:39:19.316Z,8.47
2023-02-04T07:41:47.144Z,8.48
2023-02-04T07:44:14.970Z,8.48
2023-02-04T07:46:42.872Z,8.48
2023-02-04T07:49:10.638Z,8.58
2023-02-04T07:51:39.769Z,8.70
2023-02-04T07:54:07.448Z,8.88
2023-02-04T07:56:35.240Z,9.02
2023-02-04T07:59:03.076Z,9.17
2023-02-04T08:01:30.857Z,9.30
2023-02-04T08:03:58.647Z,9.45
2023-02-04T08:06:26.492Z,9.61
2023-02-04T08:08:55.578Z,9.75
2023-02-04T08:11:23.259Z,9.79
2023-02-04T08:13:50.955Z,9.75
2023-02-04T08:16:18.739Z,9.65
2023-02-04T08:18:46.459Z,9.52
2023-02-04T08:21:14.193Z,9.40
2023-02-04T08:23:42.317Z,9.28
2023-02-04T08:26:12.860Z,9.20
2023-02-04T08:28:40.605Z,9.14
2023-02-04T08:31:11.860Z,9.10
2023-02-04T08:33:40.053Z,9.06
2023-02-04T08:36:08.677Z,9.01
2023-02-04T08:38:36.587Z,8.98
2023-02-04T08:41:04.564Z,8.94
2023-02-04T08:43:33.630Z,8.92
2023-02-04T08:46:01.396Z,8.90
2023-02-04T08:48:29.300Z,8.88
2023-02-04T08:50:57.123Z,8.86
2023-02-04T08:53:24.913Z,8.75
2023-02-04T08:55:52.671Z,8.73
2023-02-04T08:58:20.391Z,8.74
2023-02-04T09:00:49.666Z,8.74
2023-02-04T09:03:17.397Z,8.76
2023-02-04T09:05:45.066Z,8.79
2023-02-04T09:08:12.833Z,8.81
2023-02-04T09:10:40.800Z,8.84
2023-02-04T09:13:11.690Z,8.85
2023-02-04T09:15:39.492Z,8.84
2023-02-04T09:18:16.373Z,8.84
2023-02-04T09:20:44.139Z,8.84
2023-02-04T09:23:12.936Z,8.82
2023-02-04T09:25:41.213Z,8.83
2023-02-04T09:28:11.553Z,8.84
2023-02-04T09:30:39.929Z,8.84
2023-02-04T09:33:09.840Z,8.83
2023-02-04T09:35:37.658Z,8.82
2023-02-04T09:38:05.482Z,8.84
2023-02-04T09:40:36.414Z,8.84
2023-02-04T09:43:06.667Z,8.84
2023-02-04T09:45:36.991Z,8.84
2023-02-04T09:48:08.545Z,8.85
2023-02-04T09:50:38.738Z,8.85
2023-02-04T09:53:08.429Z,8.86
2023-02-04T09:55:39.073Z,8.84
2023-02-04T09:58:13.346Z,8.87
2023-02-04T10:00:41.111Z,8.78
2023-02-04T10:03:15.901Z,8.86
2023-02-04T10:05:45.671Z,8.85
2023-02-04T10:08:16.334Z,8.86
2023-02-04T10:10:45.086Z,8.87
2023-02-04T10:13:19.431Z,8.86
2023-02-04T10:15:49.022Z,8.86
2023-02-04T10:18:23.449Z,8.89
2023-02-04T10:20:54.030Z,8.89
2023-02-04T10:23:22.119Z,9.02
2023-02-04T10:25:49.869Z,9.16
2023-02-04T10:28:18.412Z,9.35
2023-02-04T10:30:47.218Z,9.56
2023-02-04T10:33:16.818Z,9.73
2023-02-04T10:35:49.170Z,9.93
2023-02-04T10:38:18.290Z,9.99
2023-02-04T10:40:47.224Z,9.97
2023-02-04T10:43:23.780Z,9.89
2023-02-04T10:45:59.069Z,9.78
2023-02-04T10:48:27.945Z,9.67
2023-02-04T10:50:57.548Z,9.60
2023-02-04T10:53:45.223Z,9.55
2023-02-04T10:56:17.731Z,9.52
2023-02-04T10:58:45.750Z,9.49
2023-02-04T11:01:16.013Z,9.46
2023-02-04T11:03:47.095Z,9.38
2023-02-04T11:06:21.379Z,9.43
2023-02-04T11:08:53.539Z,9.41
2023-02-04T11:11:24.388Z,9.40
2023-02-04T11:14:04.251Z,9.39
2023-02-04T11:16:35.517Z,9.39
2023-02-04T11:19:05.594Z,9.38
2023-02-04T11:21:44.603Z,9.38
2023-02-04T11:24:26.404Z,9.38
2023-02-04T11:27:07.515Z,9.38
2023-02-04T11:29:38.480Z,9.36
2023-02-04T11:32:11.390Z,9.38
2023-02-04T11:34:48.658Z,9.38
2023-02-04T11:37:35.551Z,9.39
2023-02-04T11:40:21.427Z,9.37
2023-02-04T11:42:49.570Z,9.39
2023-02-04T11:45:21.127Z,9.39
2023-02-04T11:47:49.485Z,9.40
2023-02-04T11:50:22.704Z,9.42
2023-02-04T11:52:50.498Z,9.41
2023-02-04T11:55:20.190Z,9.42
2023-02-04T11:57:52.999Z,9.43
2023-02-04T12:00:22.929Z,9.42
2023-02-04T12:02:56.170Z,9.43
2023-02-04T12:05:37.533Z,9.44
2023-02-04T12:08:13.603Z,9.44
2023-02-04T12:10:50.158Z,9.44
2023-02-04T12:13:20.122Z,9.45
2023-02-04T12:15:56.676Z,9.45
2023-02-04T12:18:24.413Z,9.45
2023-02-04T12:20:52.112Z,9.46
2023-02-04T12:23:19.963Z,9.46
2023-02-04T12:25:49.247Z,9.48
2023-02-04T12:28:17.278Z,9.48
2023-02-04T12:30:45.210Z,9.45
2023-02-04T12:33:14.920Z,9.48
2023-02-04T12:35:42.956Z,9.50
2023-02-04T12:38:11.046Z,9.50
2023-02-04T12:40:38.972Z,9.50
2023-02-04T12:43:08.152Z,9.50
2023-02-04T12:45:35.929Z,9.51
2023-02-04T12:48:03.682Z,9.51
2023-02-04T12:50:31.666Z,9.52
2023-02-04T12:53:00.836Z,9.52
2023-02-04T12:55:30.413Z,9.55
2023-02-04T12:57:58.402Z,9.56
2023-02-04T13:00:27.794Z,9.58
2023-02-04T13:02:56.045Z,9.60
2023-02-04T13:05:23.761Z,9.61
2023-02-04T13:07:51.612Z,9.62
2023-02-04T13:10:20.157Z,9.63
2023-02-04T13:12:47.958Z,9.63
2023-02-04T13:15:15.728Z,9.64
2023-02-04T13:17:44.810Z,9.66
2023-02-04T13:20:13.739Z,9.66
2023-02-04T13:22:44.277Z,9.67
2023-02-04T13:25:12.600Z,9.67
2023-02-04T13:27:40.924Z,9.68
2023-02-04T13:30:10.307Z,9.68
2023-02-04T13:32:38.092Z,9.68
2023-02-04T13:35:08.019Z,9.68
2023-02-04T13:37:36.014Z,9.69
2023-02-04T13:40:03.758Z,9.69
2023-02-04T13:42:31.483Z,9.70
2023-02-04T13:44:59.236Z,9.70
2023-02-04T13:47:27.561Z,9.71
2023-02-04T13:49:55.306Z,9.72
2023-02-04T13:52:24.393Z,9.73
2023-02-04T13:54:52.127Z,9.74
2023-02-04T13:57:21.181Z,9.75
2023-02-04T13:59:48.894Z,9.75
2023-02-04T14:02:16.949Z,9.74
2023-02-04T14:04:44.708Z,9.75
2023-02-04T14:07:13.743Z,9.74
2023-02-04T14:09:42.901Z,9.75
2023-02-04T14:12:10.806Z,9.73
2023-02-04T14:14:38.509Z,9.72
2023-02-04T14:17:06.674Z,9.73
2023-02-04T14:19:34.485Z,9.73
2023-02-04T14:22:02.804Z,9.72
2023-02-04T14:24:30.611Z,9.74
2023-02-04T14:27:01.230Z,9.74
2023-02-04T14:29:28.970Z,9.74
2023-02-04T14:31:56.762Z,9.73
2023-02-04T14:34:24.566Z,9.74
2023-02-04T14:36:52.274Z,9.75
2023-02-04T14:39:20.084Z,9.76
2023-02-04T14:41:47.771Z,9.77
2023-02-04T14:44:20.676Z,9.77
2023-02-04T14:46:49.749Z,9.78
2023-02-04T14:49:17.730Z,9.89
2023-02-04T14:51:45.638Z,10.07
2023-02-04T14:54:13.661Z,10.24
2023-02-04T14:56:41.416Z,10.43
2023-02-04T14:59:09.143Z,10.59
2023-02-04T15:01:38.235Z,10.65
2023-02-04T15:04:06.004Z,10.64
2023-02-04T15:06:33.776Z,10.59
2023-02-04T15:09:01.509Z,10.44
2023-02-04T15:11:29.235Z,10.44
2023-02-04T15:13:56.948Z,10.38
2023-02-04T15:16:24.695Z,10.32
2023-02-04T15:18:53.994Z,10.29
2023-02-04T15:21:21.935Z,10.26
2023-02-04T15:23:49.609Z,10.22
2023-02-04T15:26:17.358Z,10.20
2023-02-04T15:28:45.122Z,10.18
2023-02-04T15:31:13.260Z,10.16
2023-02-04T15:33:41.145Z,10.15
2023-02-04T15:36:10.666Z,10.14
2023-02-04T15:38:38.458Z,10.12
2023-02-04T15:41:06.416Z,10.10
2023-02-04T15:43:35.854Z,10.10
2023-02-04T15:46:03.668Z,10.10
2023-02-04T15:48:31.424Z,10.08
2023-02-04T15:50:59.573Z,10.09
2023-02-04T15:53:28.763Z,10.09
2023-02-04T15:55:56.561Z,10.07
2023-02-04T15:58:24.304Z,10.06
2023-02-04T16:00:52.098Z,10.06
2023-02-04T16:03:19.855Z,10.04
2023-02-04T16:05:47.624Z,10.03
2023-02-04T16:08:21.936Z,10.02
2023-02-04T16:10:51.089Z,10.01
2023-02-04T16:13:18.879Z,10.01
2023-02-04T16:15:46.731Z,10.01
2023-02-04T16:18:14.506Z,10.01
2023-02-04T16:20:42.257Z,10.00
2023-02-04T16:23:10.063Z,10.00
2023-02-04T16:25:37.833Z,10.01
2023-02-04T16:28:07.036Z,9.99
2023-02-04T16:30:34.809Z,10.00
2023-02-04T16:33:02.537Z,9.98
2023-02-04T16:35:30.542Z,10.00
2023-02-04T16:37:58.343Z,10.00
2023-02-04T16:40:26.060Z,9.99
2023-02-04T16:42:54.247Z,9.99
2023-02-04T16:45:24.302Z,9.98
2023-02-04T16:47:52.089Z,9.98
2023-02-04T16:50:22.058Z,9.98
2023-02-04T16:52:49.803Z,9.97
2023-02-04T16:55:17.803Z,9.98
2023-02-04T16:57:45.616Z,9.97
2023-02-04T17:00:14.697Z,9.97
2023-02-04T17:02:43.915Z,9.93
2023-02-04T17:05:11.777Z,9.96
2023-02-04T17:07:39.672Z,9.95
2023-02-04T17:10:08.005Z,9.95
2023-02-04T17:12:35.816Z,9.94
2023-02-04T17:15:03.596Z,9.96
2023-02-04T17:17:31.422Z,9.89
2023-02-04T17:20:01.085Z,9.94
2023-02-04T17:22:28.830Z,9.94
2023-02-04T17:24:56.540Z,9.92
2023-02-04T17:27:24.263Z,9.92
2023-02-04T17:29:52.011Z,9.92
2023-02-04T17:32:19.742Z,9.93
2023-02-04T17:34:47.473Z,9.92
2023-02-04T17:37:16.573Z,9.93
2023-02-04T17:39:44.491Z,9.92
2023-02-04T17:42:12.200Z,9.92
2023-02-04T17:44:40.037Z,9.93
2023-02-04T17:47:08.408Z,9.92
2023-02-04T17:49:36.516Z,9.93
2023-02-04T17:52:04.448Z,9.92
2023-02-04T17:54:34.179Z,9.91
2023-02-04T17:57:12.625Z,9.91
2023-02-04T17:59:41.074Z,9.89
2023-02-04T18:02:21.969Z,9.89
2023-02-04T18:04:49.926Z,9.88
2023-02-04T18:07:17.696Z,9.98
2023-02-04T18:09:46.826Z,10.12
2023-02-04T18:12:16.293Z,10.27
2023-02-04T18:14:44.780Z,10.45
2023-02-04T18:17:14.559Z,10.61
2023-02-04T18:19:45.127Z,10.79
2023-02-04T18:22:14.893Z,10.87
2023-02-04T18:24:45.056Z,10.85
2023-02-04T18:27:21.128Z,10.79
2023-02-04T18:29:51.891Z,10.70
2023-02-04T18:32:22.273Z,10.62
2023-02-04T18:34:52.197Z,10.54
2023-02-04T18:37:30.346Z,10.47
2023-02-04T18:40:24.616Z,10.40
2023-02-04T18:43:02.576Z,10.36
2023-02-04T18:45:32.477Z,10.32
2023-02-04T18:48:02.195Z,10.19
2023-02-04T18:50:32.643Z,10.24
2023-02-04T18:53:02.334Z,10.21
2023-02-04T18:55:34.834Z,10.18
2023-02-04T18:58:28.264Z,10.15
2023-02-04T19:01:00.519Z,10.13
2023-02-04T19:03:30.427Z,10.08
2023-02-04T19:06:00.548Z,10.09
2023-02-04T19:08:30.297Z,10.07
2023-02-04T19:11:00.904Z,10.06
2023-02-04T19:13:40.953Z,10.06
2023-02-04T19:16:21.485Z,10.03
2023-02-04T19:18:50.079Z,10.11
2023-02-04T19:21:27.296Z,10.12
2023-02-04T19:23:59.790Z,10.10
2023-02-04T19:26:35.044Z,10.08
2023-02-04T19:29:37.573Z,10.08
2023-02-04T19:32:24.926Z,10.18
2023-02-04T19:34:53.201Z,10.32
2023-02-04T19:37:26.591Z,10.50
2023-02-04T19:39:55.883Z,10.70
2023-02-04T19:42:29.827Z,10.89
2023-02-04T19:45:01.768Z,10.99
2023-02-04T19:47:35.280Z,10.98
2023-02-04T19:50:21.590Z,10.92
2023-02-04T19:52:52.225Z,10.83
2023-02-04T19:55:34.832Z,10.73
2023-02-04T19:58:14.788Z,10.63
2023-02-04T20:00:53.159Z,10.55
2023-02-04T20:03:28.663Z,10.41
2023-02-04T20:06:01.897Z,10.45
2023-02-04T20:08:46.273Z,10.39
2023-02-04T20:11:50.018Z,10.36
2023-02-04T20:14:42.603Z,10.25
2023-02-04T20:17:22.237Z,10.29
2023-02-04T20:19:50.911Z,10.25
2023-02-04T20:22:43.990Z,10.24
2023-02-04T20:25:43.655Z,10.21
2023-02-04T20:28:20.265Z,10.19
2023-02-04T20:30:50.670Z,10.18
2023-02-04T20:33:29.295Z,10.16
2023-02-04T20:36:42.526Z,10.13
2023-02-04T20:39:43.645Z,10.12
2023-02-04T20:42:35.241Z,10.09
2023-02-04T20:45:25.434Z,10.08
2023-02-04T20:47:57.421Z,10.06
2023-02-04T20:50:38.202Z,10.05
2023-02-04T20:53:09.708Z,10.04
2023-02-04T20:55:37.550Z,10.03
2023-02-04T20:58:16.636Z,10.02
2023-02-04T21:00:47.889Z,10.00
2023-02-04T21:03:25.358Z,10.00
2023-02-04T21:05:55.706Z,9.99
2023-02-04T21:08:33.352Z,10.00
2023-02-04T21:11:01.866Z,9.99
2023-02-04T21:13:29.644Z,9.97
2023-02-04T21:15:57.681Z,9.98
2023-02-04T21:18:26.024Z,9.97
2023-02-04T21:20:55.135Z,9.98
2023-02-04T21:23:22.969Z,9.94
2023-02-04T21:25:50.706Z,9.97
2023-02-04T21:28:18.629Z,9.90
2023-02-04T21:30:46.455Z,9.93
2023-02-04T21:33:16.694Z,9.92
2023-02-04T21:35:44.840Z,9.90
2023-02-04T21:38:13.976Z,9.92
2023-02-04T21:40:42.115Z,9.91
2023-02-04T21:43:11.158Z,9.91
2023-02-04T21:45:39.856Z,9.90
2023-02-04T21:48:08.822Z,9.90
2023-02-04T21:50:38.404Z,9.90
2023-02-04T21:53:06.866Z,9.89
2023-02-04T21:55:36.666Z,9.89
2023-02-04T21:58:04.895Z,9.88
2023-02-04T22:00:33.098Z,9.87
2023-02-04T22:03:01.015Z,9.87
2023-02-04T22:05:28.807Z,9.87
2023-02-04T22:07:58.393Z,9.87
2023-02-04T22:10:27.431Z,9.86
2023-02-04T22:12:56.597Z,9.86
2023-02-04T22:15:24.954Z,9.87
2023-02-04T22:17:55.261Z,9.86
2023-02-04T22:20:25.231Z,9.86
2023-02-04T22:22:53.354Z,9.83
2023-02-04T22:25:22.440Z,9.85
2023-02-04T22:27:50.651Z,9.82
2023-02-04T22:30:20.753Z,9.85
2023-02-04T22:32:48.545Z,9.83
2023-02-04T22:35:16.680Z,9.83
2023-02-04T22:37:44.701Z,9.84
2023-02-04T22:40:13.574Z,9.83
2023-02-04T22:42:41.800Z,9.82
2023-02-04T22:45:11.302Z,9.83
2023-02-04T22:47:40.483Z,9.83
2023-02-04T22:50:08.945Z,9.82
2023-02-04T22:52:36.747Z,9.82
2023-02-04T22:55:04.916Z,9.82
2023-02-04T22:57:32.684Z,9.81
2023-02-04T23:00:00.445Z,9.80
2023-02-04T23:02:28.212Z,9.79
2023-02-04T23:04:57.313Z,9.78
2023-02-04T23:07:25.027Z,9.76
2023-02-04T23:09:52.810Z,9.76
2023-02-04T23:12:20.508Z,9.76
2023-02-04T23:14:49.606Z,9.75
2023-02-04T23:17:18.865Z,9.75
2023-02-04T23:19:46.744Z,9.75
2023-02-04T23:22:16.973Z,9.76
2023-02-04T23:24:45.089Z,9.75
2023-02-04T23:27:13.216Z,9.74
2023-02-04T23:29:41.407Z,9.74
2023-02-04T23:32:09.765Z,9.75
2023-02-04T23:34:37.524Z,9.75
2023-02-04T23:37:05.290Z,9.75
2023-02-04T23:39:34.403Z,9.76
2023-02-04T23:42:02.185Z,9.74
2023-02-04T23:44:29.926Z,9.72
2023-02-04T23:46:57.706Z,9.74
2023-02-04T23:49:25.409Z,9.75
2023-02-04T23:51:53.149Z,9.75
2023-02-04T23:54:20.943Z,9.74
2023-02-04T23:56:50.060Z,9.74
2023-02-04T23:59:17.817Z,9.73
